• Join FlightAware (Why Join?)
  • Login
  • US Flag 
06:14AM EST


 

Airport Tracker/Info


-or-


 

Live Flight TrackerFlight Track Log ✈ UAL563 ✈ 10-Nov-2013 ✈ KPHL - KORD

Flight Track Log - Related Links

Times and Time Zones

All times are in EST time to prevent confusion due to time zone crossing. See the UAL563 flight status page for this flight to view local times or setup timezone preferences in your user account.

Time Position Orientation Groundspeed Altitude Reporting Facility
EST Latitude Longitude Course Direction KTS MPH feet Rate Location/Type
04:42PM 39.8667 -75.2667 308° West 157 181 500  Level Philadelphia TRACON
04:43PM 39.8500 -75.3333 252° West 195 224 2,800 2,520 Climbing Philadelphia TRACON
04:44PM 39.8333 -75.4167 255° West 223 257 5,800 3,240 Climbing Philadelphia TRACON
04:45PM 39.8333 -75.4667 270° West 228 262 9,000 3,060 Climbing Philadelphia TRACON
04:46PM 39.9729 -75.6874 270° West  Level Estimated
04:46PM 39.8919 -75.4894 343° North 262 302 11,000  Level New York Center
04:47PM 39.9978 -75.7992 308° West  Level Estimated
04:51PM 40.2770 -75.6430 343° North 100 115 16,800  Level FlightAware
04:52PM 40.2870 -75.6580 311° West 100 115 16,800  Level FlightAware
04:52PM 40.2940 -75.6670 316° Northwest 100 115 16,800  Level FlightAware
04:53PM 40.3030 -75.6810 310° West 100 115 16,800  Level FlightAware
04:54PM 40.3190 -75.7030 314° West 100 115 16,800 2,700 Level FlightAware
04:55PM 40.4650 -76.0440 299° West 314 361 23,100 3,180 Climbing FlightAware
04:56PM 40.4840 -76.1600 282° West 325 374 24,300 1,560 Climbing FlightAware
04:57PM 40.4970 -76.2410 282° West 326 375 25,700 1,980 Climbing FlightAware
04:58PM 40.5050 -76.2920 282° West 326 375 26,500 1,500 Climbing FlightAware
04:58PM 40.5210 -76.3920 282° West 333 383 27,700 900 Climbing FlightAware
04:59PM 40.5380 -76.5040 281° West 357 411 28,300 360 Climbing FlightAware
05:00PM 40.5480 -76.5700 281° West 357 411 28,300  Level FlightAware
05:01PM 40.5610 -76.6570 281° West 357 411 28,300  Level FlightAware
05:01PM 40.5700 -76.7220 280° West 357 411 28,300  Level FlightAware
05:02PM 40.5840 -76.8110 282° West 357 411 28,300  Level FlightAware
05:03PM 40.5930 -76.8780 280° West 357 411 28,300 3,060 Level FlightAware
05:04PM 40.5989 -77.1261 280° West 342 394 34,000 2,460 Climbing New York Center
05:05PM 40.6089 -77.2503 276° West 342 394 34,000  Level New York Center
05:06PM 40.6228 -77.3744 278° West 342 394 34,000  Level New York Center
05:08PM 40.6444 -77.6675 276° West 343 395 34,000  Level Cleveland Center
05:09PM 40.6542 -77.7894 276° West 338 389 34,000 -60 Level Cleveland Center
05:11PM 40.6703 -77.9106 280° West 337 388 33,900 -60 Descending Cleveland Center
05:12PM 40.6875 -78.0308 281° West 335 386 33,900  Level Cleveland Center
05:13PM 40.7042 -78.1514 280° West 336 387 34,000  Climbing Cleveland Center
05:14PM 40.7211 -78.2733 280° West 339 390 34,000  Level Cleveland Center
05:15PM 40.7408 -78.4197 280° West 339 390 34,000 -60 Level Cleveland Center
05:16PM 40.7581 -78.5411 281° West 338 389 33,900  Descending Cleveland Center
05:17PM 40.7742 -78.6631 280° West 337 388 34,000  Climbing Cleveland Center
05:18PM 40.7903 -78.7856 280° West 337 388 34,000  Level Cleveland Center
05:19PM 40.8064 -78.9086 280° West 339 390 34,000  Level Cleveland Center
05:20PM 40.8244 -79.0375 281° West 339 390 34,000 -60 Level Cleveland Center
05:21PM 40.8392 -79.1581 279° West 335 386 33,900  Descending Cleveland Center
05:22PM 40.8553 -79.2797 280° West 336 387 34,000  Climbing Cleveland Center
05:23PM 40.8736 -79.4250 280° West 336 387 34,000  Level Cleveland Center
05:24PM 40.8886 -79.5475 279° West 339 390 34,000  Level Cleveland Center
05:25PM 40.9039 -79.6703 279° West 339 390 34,000  Level Cleveland Center
05:26PM 40.9181 -79.7925 279° West 339 390 34,000  Level Cleveland Center
05:27PM 40.9333 -79.9142 279° West 338 389 34,000 -60 Level Cleveland Center
05:28PM 40.9508 -80.0606 279° West 338 389 33,900  Descending Cleveland Center
05:29PM 40.9658 -80.1825 279° West 338 389 34,000  Climbing Cleveland Center
05:30PM 40.9800 -80.3069 279° West 342 394 34,000  Level Cleveland Center
05:31PM 40.9958 -80.4297 280° West 341 392 34,000  Level Cleveland Center
05:32PM 41.0106 -80.5533 279° West 341 392 34,000  Level Cleveland Center
05:33PM 41.0281 -80.7028 279° West 345 397 34,000  Level Cleveland Center
05:34PM 41.0419 -80.8272 278° West 344 396 34,000  Level Cleveland Center
05:35PM 41.0528 -80.9517 277° West 342 394 34,000  Level Cleveland Center
05:36PM 41.0608 -81.0908 274° West 347 399 34,000 -60 Level Cleveland Center
05:37PM 41.0686 -81.2189 275° West 345 397 33,900  Descending Cleveland Center
05:38PM 41.0772 -81.3469 275° West 345 397 34,000  Climbing Cleveland Center
05:39PM 41.0844 -81.4767 274° West 348 400 34,000  Level Cleveland Center
05:41PM 41.0933 -81.6067 275° West 349 402 34,000 -60 Level Cleveland Center
05:42PM 41.1006 -81.7364 274° West 346 398 33,900  Descending Cleveland Center
05:43PM 41.1083 -81.8669 275° West 347 399 34,000  Climbing Cleveland Center
05:44PM 41.1158 -81.9981 274° West 351 404 34,000  Level Cleveland Center
05:45PM 41.1239 -82.1522 274° West 355 409 34,000  Level Cleveland Center
05:46PM 41.1311 -82.2850 274° West 356 410 34,000  Level Cleveland Center
05:47PM 41.1383 -82.4150 274° West 353 406 34,000  Level Cleveland Center
05:48PM 41.1453 -82.5475 274° West 355 409 34,000  Level Cleveland Center
05:49PM 41.1522 -82.6808 274° West 358 412 34,000  Level Cleveland Center
05:50PM 41.1586 -82.8136 274° West 358 412 34,000  Level Cleveland Center
05:51PM 41.1658 -82.9467 274° West 358 412 34,000  Level Cleveland Center
05:52PM 41.1725 -83.0794 274° West 358 412 34,000  Level Cleveland Center
05:53PM 41.1786 -83.2150 273° West 360 414 34,000  Level Cleveland Center
05:54PM 41.1853 -83.3469 274° West 358 412 34,000  Level Cleveland Center
05:55PM 41.1922 -83.5072 273° West 361 415 34,000  Level Cleveland Center
05:56PM 41.1981 -83.6428 273° West 366 421 34,000  Level Cleveland Center
05:57PM 41.2044 -83.7769 274° West 364 419 34,000 -60 Level Cleveland Center
05:58PM 41.2103 -83.9039 274° West 364 419 33,900  Descending Cleveland Center
05:59PM 41.2156 -84.0381 273° West 365 420 34,000  Climbing Cleveland Center
06:00PM 41.2219 -84.2000 273° West 366 421 34,000  Level Cleveland Center
06:01PM 41.2269 -84.3353 273° West 367 422 34,000  Level Cleveland Center
06:02PM 41.2297 -84.4714 272° West 368 423 34,000  Level Cleveland Center
06:03PM 41.2339 -84.6083 272° West 369 425 34,000  Level Cleveland Center
06:04PM 41.2378 -84.7469 272° West 375 432 34,000  Level Cleveland Center
06:05PM 41.2428 -84.8856 273° West 376 433 34,000  Level Cleveland Center
06:06PM 41.2483 -85.0531 273° West 376 433 34,000 -120 Level Cleveland Center
06:07PM 41.2525 -85.1936 272° West 377 434 33,800 -840 Descending Cleveland Center
06:09PM 41.2553 -85.3603 271° West 377 434 32,100 -1,740 Descending Chicago Center
06:10PM 41.2597 -85.5003 272° West 376 433 29,900 -2,340 Descending Chicago Center
06:11PM 41.2628 -85.6408 272° West 377 434 27,300 -2,280 Descending Chicago Center
06:12PM 41.2664 -85.7858 272° West 390 449 25,200 -1,140 Descending Chicago Center
06:13PM 41.2764 -85.9650 274° West 401 461 25,000 -120 Descending Chicago Center
06:14PM 41.2925 -86.1111 278° West 399 459 25,000 -240 Level Chicago Center
06:15PM 41.3436 -86.2411 298° West 396 456 24,500 -1,800 Descending Chicago Center
06:16PM 41.4078 -86.3547 307° West 385 443 21,300 -3,000 Descending Chicago Center
06:17PM 41.4728 -86.4667 308° West 381 438 18,400 -2,520 Descending Chicago Center
06:18PM 41.5308 -86.5719 306° West 359 413 16,100 -3,000 Descending Chicago Center
06:19PM 41.6003 -86.6947 307° West 346 398 12,300 -1,080 Descending Chicago Center
06:24PM 41.9320 -86.9650 307° West 100 115 9,800 -480 Descending FlightAware
06:25PM 41.9410 -86.9730 327° Northwest 100 115 9,800 -180 Level FlightAware
06:25PM 41.9640 -87.0450 293° West 100 115 9,700 -120 Descending FlightAware
06:25PM 41.9810 -87.1010 292° West 304 350 9,700  Level FlightAware
06:26PM 41.9890 -87.1440 284° West 304 350 9,700 -540 Level FlightAware
06:26PM 41.9820 -87.1780 255° West 266 306 9,300 -480 Descending FlightAware
06:27PM 41.9820 -87.2330 270° West 266 306 9,300  Level FlightAware
06:27PM 41.9830 -87.2670 272° West 266 306 9,300  Level FlightAware
06:27PM 41.9830 -87.2840 270° West 266 306 9,300  Level FlightAware
06:28PM 41.9840 -87.3340 272° West 266 306 9,300 -1,680 Level FlightAware
06:29PM 41.9833 -87.4167 272° West 211 243 7,000 -1,740 Descending Chicago TRACON
06:29PM 41.9825 -87.4500 268° West 206 237 7,000 -600 Level Chicago Center
06:30PM 41.9825 -87.5278 270° West 209 241 6,100 -1,140 Descending Chicago Center
06:31PM 41.9831 -87.6192 270° West 206 237 4,700 -1,260 Descending Chicago Center
06:32PM 41.9842 -87.6967 271° West 208 239 3,500 -1,020 Descending Chicago Center
06:34PM 41.9847 -87.7694 271° West 204 235 2,700 -900 Descending Chicago Center
06:35PM 41.9839 -87.8275 269° West 184 212 1,700 -780 Descending Chicago Center
06:36PM 41.9831 -87.8758 269° West 154 177 1,200 -540 Descending Chicago Center